sensor_id;sensor_type;location;lat;lon;timestamp;temperature;humidity
21678;DHT22;11000;50.360;7.582;2022-09-27T00:00:18;11.50;99.90
21678;DHT22;11000;50.360;7.582;2022-09-27T00:02:38;11.50;99.90
21678;DHT22;11000;50.360;7.582;2022-09-27T00:04:59;11.50;99.90
21678;DHT22;11000;50.360;7.582;2022-09-27T00:07:20;11.50;99.90
21678;DHT22;11000;50.360;7.582;2022-09-27T00:09:40;11.40;99.90
21678;DHT22;11000;50.360;7.582;2022-09-27T00:12:00;11.50;99.90
21678;DHT22;11000;50.360;7.582;2022-09-27T00:14:21;11.50;99.90
21678;DHT22;11000;50.360;7.582;2022-09-27T00:16:43;11.40;99.90
21678;DHT22;11000;50.360;7.582;2022-09-27T00:19:06;11.40;99.90
21678;DHT22;11000;50.360;7.582;2022-09-27T00:21:28;11.40;99.90
21678;DHT22;11000;50.360;7.582;2022-09-27T00:23:49;11.40;99.90
21678;DHT22;11000;50.360;7.582;2022-09-27T00:26:12;11.30;99.90
21678;DHT22;11000;50.360;7.582;2022-09-27T00:28:33;11.40;99.90
21678;DHT22;11000;50.360;7.582;2022-09-27T00:30:54;11.40;99.90
21678;DHT22;11000;50.360;7.582;2022-09-27T00:33:14;11.40;99.90
21678;DHT22;11000;50.360;7.582;2022-09-27T00:35:35;11.30;99.90
21678;DHT22;11000;50.360;7.582;2022-09-27T00:37:55;11.30;99.90
21678;DHT22;11000;50.360;7.582;2022-09-27T00:40:16;11.30;99.90
21678;DHT22;11000;50.360;7.582;2022-09-27T00:42:36;11.30;99.90
21678;DHT22;11000;50.360;7.582;2022-09-27T00:45:03;11.30;99.90
21678;DHT22;11000;50.360;7.582;2022-09-27T00:47:46;11.30;99.90
21678;DHT22;11000;50.360;7.582;2022-09-27T00:55:18;11.30;99.90
21678;DHT22;11000;50.360;7.582;2022-09-27T00:57:41;11.30;99.90
21678;DHT22;11000;50.360;7.582;2022-09-27T01:00:07;11.30;99.90
21678;DHT22;11000;50.360;7.582;2022-09-27T01:02:29;11.30;99.90
21678;DHT22;11000;50.360;7.582;2022-09-27T01:04:50;11.20;99.90
21678;DHT22;11000;50.360;7.582;2022-09-27T01:07:10;11.20;99.90
21678;DHT22;11000;50.360;7.582;2022-09-27T01:09:31;11.20;99.90
21678;DHT22;11000;50.360;7.582;2022-09-27T01:12:10;11.20;99.90
21678;DHT22;11000;50.360;7.582;2022-09-27T01:15:37;11.20;99.90
21678;DHT22;11000;50.360;7.582;2022-09-27T01:23:27;11.20;99.90
21678;DHT22;11000;50.360;7.582;2022-09-27T01:25:49;11.10;99.90
21678;DHT22;11000;50.360;7.582;2022-09-27T01:30:43;11.10;99.90
21678;DHT22;11000;50.360;7.582;2022-09-27T01:33:13;11.00;99.90
21678;DHT22;11000;50.360;7.582;2022-09-27T01:35:47;11.00;99.90
21678;DHT22;11000;50.360;7.582;2022-09-27T01:38:11;10.90;99.90
21678;DHT22;11000;50.360;7.582;2022-09-27T01:41:07;10.90;99.90
21678;DHT22;11000;50.360;7.582;2022-09-27T01:43:37;10.90;99.90
21678;DHT22;11000;50.360;7.582;2022-09-27T01:46:20;10.80;99.90
21678;DHT22;11000;50.360;7.582;2022-09-27T01:48:45;10.80;99.90
21678;DHT22;11000;50.360;7.582;2022-09-27T01:51:10;10.70;99.90
21678;DHT22;11000;50.360;7.582;2022-09-27T01:53:43;10.70;99.90
21678;DHT22;11000;50.360;7.582;2022-09-27T01:56:13;10.70;99.90
21678;DHT22;11000;50.360;7.582;2022-09-27T01:58:55;10.70;99.90
21678;DHT22;11000;50.360;7.582;2022-09-27T02:01:18;10.70;99.90
21678;DHT22;11000;50.360;7.582;2022-09-27T02:03:42;10.70;99.90
21678;DHT22;11000;50.360;7.582;2022-09-27T02:06:12;10.60;99.90
21678;DHT22;11000;50.360;7.582;2022-09-27T02:11:21;10.60;99.90
21678;DHT22;11000;50.360;7.582;2022-09-27T02:13:52;10.70;99.90
21678;DHT22;11000;50.360;7.582;2022-09-27T02:19:11;10.70;99.90
21678;DHT22;11000;50.360;7.582;2022-09-27T02:22:00;10.60;99.90
21678;DHT22;11000;50.360;7.582;2022-09-27T02:24:36;10.60;99.90
21678;DHT22;11000;50.360;7.582;2022-09-27T02:27:08;10.60;99.90
21678;DHT22;11000;50.360;7.582;2022-09-27T02:29:40;10.60;99.90
21678;DHT22;11000;50.360;7.582;2022-09-27T02:32:02;10.60;99.90
21678;DHT22;11000;50.360;7.582;2022-09-27T02:34:26;10.60;99.90
21678;DHT22;11000;50.360;7.582;2022-09-27T02:36:47;10.60;99.90
21678;DHT22;11000;50.360;7.582;2022-09-27T02:39:08;10.60;99.90
21678;DHT22;11000;50.360;7.582;2022-09-27T02:41:28;10.60;99.90
21678;DHT22;11000;50.360;7.582;2022-09-27T02:43:53;10.60;99.90
21678;DHT22;11000;50.360;7.582;2022-09-27T02:46:22;10.60;99.90
21678;DHT22;11000;50.360;7.582;2022-09-27T02:52:00;10.60;99.90
21678;DHT22;11000;50.360;7.582;2022-09-27T02:54:38;10.60;99.90
21678;DHT22;11000;50.360;7.582;2022-09-27T02:57:09;10.60;99.90
21678;DHT22;11000;50.360;7.582;2022-09-27T02:59:49;10.60;99.90
21678;DHT22;11000;50.360;7.582;2022-09-27T03:02:24;10.60;99.90
21678;DHT22;11000;50.360;7.582;2022-09-27T03:05:01;10.60;99.90
21678;DHT22;11000;50.360;7.582;2022-09-27T03:07:22;10.60;99.90
21678;DHT22;11000;50.360;7.582;2022-09-27T03:09:45;10.50;99.90
21678;DHT22;11000;50.360;7.582;2022-09-27T03:12:07;10.50;99.90
21678;DHT22;11000;50.360;7.582;2022-09-27T03:14:27;10.50;99.90
21678;DHT22;11000;50.360;7.582;2022-09-27T03:16:48;10.50;99.90
21678;DHT22;11000;50.360;7.582;2022-09-27T03:19:09;10.50;99.90
21678;DHT22;11000;50.360;7.582;2022-09-27T03:21:29;10.50;99.90
21678;DHT22;11000;50.360;7.582;2022-09-27T03:23:50;10.50;99.90
21678;DHT22;11000;50.360;7.582;2022-09-27T03:26:10;10.50;99.90
21678;DHT22;11000;50.360;7.582;2022-09-27T03:28:31;10.50;99.90
21678;DHT22;11000;50.360;7.582;2022-09-27T03:30:51;10.50;99.90
21678;DHT22;11000;50.360;7.582;2022-09-27T03:33:12;10.40;99.90
21678;DHT22;11000;50.360;7.582;2022-09-27T03:35:33;10.50;99.90
21678;DHT22;11000;50.360;7.582;2022-09-27T03:37:54;10.50;99.90
21678;DHT22;11000;50.360;7.582;2022-09-27T03:40:14;10.40;99.90
21678;DHT22;11000;50.360;7.582;2022-09-27T03:42:35;10.40;99.90
21678;DHT22;11000;50.360;7.582;2022-09-27T03:44:55;10.40;99.90
21678;DHT22;11000;50.360;7.582;2022-09-27T03:47:16;10.30;99.90
21678;DHT22;11000;50.360;7.582;2022-09-27T03:49:36;10.30;99.90
21678;DHT22;11000;50.360;7.582;2022-09-27T03:51:57;10.30;99.90
21678;DHT22;11000;50.360;7.582;2022-09-27T03:54:17;10.30;99.90
21678;DHT22;11000;50.360;7.582;2022-09-27T03:56:38;10.30;99.90
21678;DHT22;11000;50.360;7.582;2022-09-27T03:58:58;10.30;99.90
21678;DHT22;11000;50.360;7.582;2022-09-27T04:01:19;10.20;99.90
21678;DHT22;11000;50.360;7.582;2022-09-27T04:03:40;10.20;99.90
21678;DHT22;11000;50.360;7.582;2022-09-27T04:06:01;10.20;99.90
21678;DHT22;11000;50.360;7.582;2022-09-27T04:08:22;10.30;99.90
21678;DHT22;11000;50.360;7.582;2022-09-27T04:10:43;10.30;99.90
21678;DHT22;11000;50.360;7.582;2022-09-27T04:13:04;10.30;99.90
21678;DHT22;11000;50.360;7.582;2022-09-27T04:15:24;10.20;99.90
21678;DHT22;11000;50.360;7.582;2022-09-27T04:17:45;10.20;99.90
21678;DHT22;11000;50.360;7.582;2022-09-27T04:20:06;10.20;99.90
21678;DHT22;11000;50.360;7.582;2022-09-27T04:22:26;10.20;99.90
21678;DHT22;11000;50.360;7.582;2022-09-27T04:24:47;10.20;99.90
21678;DHT22;11000;50.360;7.582;2022-09-27T04:27:08;10.20;99.90
21678;DHT22;11000;50.360;7.582;2022-09-27T04:29:28;10.30;99.90
21678;DHT22;11000;50.360;7.582;2022-09-27T04:31:49;10.20;99.90
21678;DHT22;11000;50.360;7.582;2022-09-27T04:34:09;10.30;99.90
21678;DHT22;11000;50.360;7.582;2022-09-27T04:36:30;10.20;99.90
21678;DHT22;11000;50.360;7.582;2022-09-27T04:38:55;10.30;99.90
21678;DHT22;11000;50.360;7.582;2022-09-27T04:41:15;10.30;99.90
21678;DHT22;11000;50.360;7.582;2022-09-27T04:43:36;10.20;99.90
21678;DHT22;11000;50.360;7.582;2022-09-27T04:45:56;10.30;99.90
21678;DHT22;11000;50.360;7.582;2022-09-27T04:48:17;10.30;99.90
21678;DHT22;11000;50.360;7.582;2022-09-27T04:50:37;10.30;99.90
21678;DHT22;11000;50.360;7.582;2022-09-27T04:52:59;10.30;99.90
21678;DHT22;11000;50.360;7.582;2022-09-27T04:55:20;10.30;99.90
21678;DHT22;11000;50.360;7.582;2022-09-27T04:57:41;10.30;99.90
21678;DHT22;11000;50.360;7.582;2022-09-27T05:00:03;10.30;99.90
21678;DHT22;11000;50.360;7.582;2022-09-27T05:02:24;10.30;99.90
21678;DHT22;11000;50.360;7.582;2022-09-27T05:04:44;10.30;99.90
21678;DHT22;11000;50.360;7.582;2022-09-27T05:07:05;10.30;99.90
21678;DHT22;11000;50.360;7.582;2022-09-27T05:09:25;10.30;99.90
21678;DHT22;11000;50.360;7.582;2022-09-27T05:11:46;10.40;99.90
21678;DHT22;11000;50.360;7.582;2022-09-27T05:14:06;10.30;99.90
21678;DHT22;11000;50.360;7.582;2022-09-27T05:16:26;10.30;99.90
21678;DHT22;11000;50.360;7.582;2022-09-27T05:18:47;10.40;99.90
21678;DHT22;11000;50.360;7.582;2022-09-27T05:21:07;10.30;99.90
21678;DHT22;11000;50.360;7.582;2022-09-27T05:23:28;10.30;99.90
21678;DHT22;11000;50.360;7.582;2022-09-27T05:25:48;10.40;99.90
21678;DHT22;11000;50.360;7.582;2022-09-27T05:28:09;10.40;99.90
21678;DHT22;11000;50.360;7.582;2022-09-27T05:30:30;10.40;99.90
21678;DHT22;11000;50.360;7.582;2022-09-27T05:32:50;10.40;99.90
21678;DHT22;11000;50.360;7.582;2022-09-27T05:35:12;10.40;99.90
21678;DHT22;11000;50.360;7.582;2022-09-27T05:37:32;10.40;99.90
21678;DHT22;11000;50.360;7.582;2022-09-27T05:39:53;10.40;99.90
21678;DHT22;11000;50.360;7.582;2022-09-27T05:42:13;10.40;99.90
21678;DHT22;11000;50.360;7.582;2022-09-27T05:44:35;10.40;99.90
21678;DHT22;11000;50.360;7.582;2022-09-27T05:46:55;10.40;99.90
21678;DHT22;11000;50.360;7.582;2022-09-27T05:49:16;10.40;99.90
21678;DHT22;11000;50.360;7.582;2022-09-27T05:51:37;10.40;99.90
21678;DHT22;11000;50.360;7.582;2022-09-27T05:53:57;10.30;99.90
21678;DHT22;11000;50.360;7.582;2022-09-27T05:56:18;10.40;99.90
21678;DHT22;11000;50.360;7.582;2022-09-27T05:58:38;10.30;99.90
21678;DHT22;11000;50.360;7.582;2022-09-27T06:00:59;10.40;99.90
21678;DHT22;11000;50.360;7.582;2022-09-27T06:03:19;10.40;99.90
21678;DHT22;11000;50.360;7.582;2022-09-27T06:05:40;10.40;99.90
21678;DHT22;11000;50.360;7.582;2022-09-27T06:08:03;10.50;99.90
21678;DHT22;11000;50.360;7.582;2022-09-27T06:10:24;10.40;99.90
21678;DHT22;11000;50.360;7.582;2022-09-27T06:12:44;10.40;99.90
21678;DHT22;11000;50.360;7.582;2022-09-27T06:15:05;10.40;99.90
21678;DHT22;11000;50.360;7.582;2022-09-27T06:17:26;10.40;99.90
21678;DHT22;11000;50.360;7.582;2022-09-27T06:19:46;10.30;99.90
21678;DHT22;11000;50.360;7.582;2022-09-27T06:22:07;10.30;99.90
21678;DHT22;11000;50.360;7.582;2022-09-27T06:24:27;10.30;99.90
21678;DHT22;11000;50.360;7.582;2022-09-27T06:26:48;10.30;99.90
21678;DHT22;11000;50.360;7.582;2022-09-27T06:29:08;10.30;99.90
21678;DHT22;11000;50.360;7.582;2022-09-27T06:31:29;10.30;99.90
21678;DHT22;11000;50.360;7.582;2022-09-27T06:33:49;10.30;99.90
21678;DHT22;11000;50.360;7.582;2022-09-27T06:36:10;10.40;99.90
21678;DHT22;11000;50.360;7.582;2022-09-27T06:38:31;10.40;99.90
21678;DHT22;11000;50.360;7.582;2022-09-27T06:40:52;10.50;99.90
21678;DHT22;11000;50.360;7.582;2022-09-27T06:43:18;10.50;99.90
21678;DHT22;11000;50.360;7.582;2022-09-27T06:45:40;10.60;99.90
21678;DHT22;11000;50.360;7.582;2022-09-27T06:48:06;10.70;99.90
21678;DHT22;11000;50.360;7.582;2022-09-27T06:50:32;10.80;99.90
21678;DHT22;11000;50.360;7.582;2022-09-27T06:52:54;10.90;99.90
21678;DHT22;11000;50.360;7.582;2022-09-27T06:55:16;11.00;99.90
21678;DHT22;11000;50.360;7.582;2022-09-27T06:57:36;11.00;99.90
21678;DHT22;11000;50.360;7.582;2022-09-27T07:00:15;11.10;99.90
21678;DHT22;11000;50.360;7.582;2022-09-27T07:02:48;11.10;99.90
21678;DHT22;11000;50.360;7.582;2022-09-27T07:05:09;11.00;99.90
21678;DHT22;11000;50.360;7.582;2022-09-27T07:07:31;11.10;99.90
21678;DHT22;11000;50.360;7.582;2022-09-27T07:09:52;11.20;99.90
21678;DHT22;11000;50.360;7.582;2022-09-27T07:12:12;11.20;99.90
21678;DHT22;11000;50.360;7.582;2022-09-27T07:14:33;11.30;99.90
21678;DHT22;11000;50.360;7.582;2022-09-27T07:16:54;11.40;99.90
21678;DHT22;11000;50.360;7.582;2022-09-27T07:19:15;11.50;99.90
21678;DHT22;11000;50.360;7.582;2022-09-27T07:21:37;11.70;99.90
21678;DHT22;11000;50.360;7.582;2022-09-27T07:23:58;12.10;99.90
21678;DHT22;11000;50.360;7.582;2022-09-27T07:26:18;12.40;99.90
21678;DHT22;11000;50.360;7.582;2022-09-27T07:28:39;12.40;99.90
21678;DHT22;11000;50.360;7.582;2022-09-27T07:31:01;12.40;99.90
21678;DHT22;11000;50.360;7.582;2022-09-27T07:33:23;12.40;99.90
21678;DHT22;11000;50.360;7.582;2022-09-27T07:35:43;12.40;99.90
21678;DHT22;11000;50.360;7.582;2022-09-27T07:38:04;12.30;99.90
21678;DHT22;11000;50.360;7.582;2022-09-27T07:40:25;12.20;99.90
21678;DHT22;11000;50.360;7.582;2022-09-27T07:42:46;12.20;99.90
21678;DHT22;11000;50.360;7.582;2022-09-27T07:45:08;12.20;99.90
21678;DHT22;11000;50.360;7.582;2022-09-27T07:47:29;12.30;99.90
21678;DHT22;11000;50.360;7.582;2022-09-27T07:49:50;12.30;99.90
21678;DHT22;11000;50.360;7.582;2022-09-27T07:52:12;12.40;99.90
21678;DHT22;11000;50.360;7.582;2022-09-27T07:54:32;12.50;99.90
21678;DHT22;11000;50.360;7.582;2022-09-27T07:56:52;12.50;99.90
21678;DHT22;11000;50.360;7.582;2022-09-27T07:59:14;12.40;99.90
21678;DHT22;11000;50.360;7.582;2022-09-27T08:01:35;12.40;99.90
21678;DHT22;11000;50.360;7.582;2022-09-27T08:03:56;12.30;99.90
21678;DHT22;11000;50.360;7.582;2022-09-27T08:06:17;12.20;99.90
21678;DHT22;11000;50.360;7.582;2022-09-27T08:08:38;12.00;99.90
21678;DHT22;11000;50.360;7.582;2022-09-27T08:10:58;12.00;99.90
21678;DHT22;11000;50.360;7.582;2022-09-27T08:13:19;12.00;99.90
21678;DHT22;11000;50.360;7.582;2022-09-27T08:15:39;12.10;99.90
21678;DHT22;11000;50.360;7.582;2022-09-27T08:18:00;12.40;99.90
21678;DHT22;11000;50.360;7.582;2022-09-27T08:20:21;12.50;99.90
21678;DHT22;11000;50.360;7.582;2022-09-27T08:22:42;12.70;99.90
21678;DHT22;11000;50.360;7.582;2022-09-27T08:25:03;12.80;99.90
21678;DHT22;11000;50.360;7.582;2022-09-27T08:27:23;13.00;99.90
21678;DHT22;11000;50.360;7.582;2022-09-27T08:29:44;13.00;99.90
21678;DHT22;11000;50.360;7.582;2022-09-27T08:32:05;13.10;99.90
21678;DHT22;11000;50.360;7.582;2022-09-27T08:34:25;13.10;99.90
21678;DHT22;11000;50.360;7.582;2022-09-27T08:36:48;13.20;99.90
21678;DHT22;11000;50.360;7.582;2022-09-27T08:39:08;13.30;99.90
21678;DHT22;11000;50.360;7.582;2022-09-27T08:41:46;13.40;99.90
21678;DHT22;11000;50.360;7.582;2022-09-27T08:44:19;13.40;99.90
21678;DHT22;11000;50.360;7.582;2022-09-27T08:46:50;13.40;99.90
21678;DHT22;11000;50.360;7.582;2022-09-27T08:49:40;13.20;99.90
21678;DHT22;11000;50.360;7.582;2022-09-27T08:52:04;13.10;99.90
21678;DHT22;11000;50.360;7.582;2022-09-27T08:54:30;13.10;99.90
21678;DHT22;11000;50.360;7.582;2022-09-27T08:56:52;13.10;99.90
21678;DHT22;11000;50.360;7.582;2022-09-27T08:59:19;13.00;99.90
21678;DHT22;11000;50.360;7.582;2022-09-27T09:01:42;13.00;99.90
21678;DHT22;11000;50.360;7.582;2022-09-27T09:04:03;12.90;99.90
21678;DHT22;11000;50.360;7.582;2022-09-27T09:06:26;12.90;99.90
21678;DHT22;11000;50.360;7.582;2022-09-27T09:11:48;12.90;99.90
21678;DHT22;11000;50.360;7.582;2022-09-27T09:17:19;13.10;99.90
21678;DHT22;11000;50.360;7.582;2022-09-27T09:19:59;13.30;99.90
21678;DHT22;11000;50.360;7.582;2022-09-27T09:25:22;13.40;99.90
21678;DHT22;11000;50.360;7.582;2022-09-27T09:28:10;13.50;99.90
21678;DHT22;11000;50.360;7.582;2022-09-27T09:31:08;13.60;99.90
21678;DHT22;11000;50.360;7.582;2022-09-27T09:33:45;13.60;99.90
21678;DHT22;11000;50.360;7.582;2022-09-27T09:39:04;13.60;99.90
21678;DHT22;11000;50.360;7.582;2022-09-27T09:41:35;13.70;99.90
21678;DHT22;11000;50.360;7.582;2022-09-27T09:44:04;13.60;99.90
21678;DHT22;11000;50.360;7.582;2022-09-27T09:46:46;13.70;99.90
21678;DHT22;11000;50.360;7.582;2022-09-27T09:49:42;13.70;99.90
21678;DHT22;11000;50.360;7.582;2022-09-27T09:52:10;13.70;99.90
21678;DHT22;11000;50.360;7.582;2022-09-27T09:54:36;13.80;99.90
21678;DHT22;11000;50.360;7.582;2022-09-27T09:59:37;13.90;99.90
21678;DHT22;11000;50.360;7.582;2022-09-27T10:02:16;13.90;99.90
21678;DHT22;11000;50.360;7.582;2022-09-27T10:04:39;13.80;99.90
21678;DHT22;11000;50.360;7.582;2022-09-27T10:06:59;13.80;99.90
21678;DHT22;11000;50.360;7.582;2022-09-27T10:09:23;13.80;99.90
21678;DHT22;11000;50.360;7.582;2022-09-27T10:11:45;13.70;99.90
21678;DHT22;11000;50.360;7.582;2022-09-27T10:14:25;13.80;99.90
21678;DHT22;11000;50.360;7.582;2022-09-27T10:16:54;13.90;99.90
21678;DHT22;11000;50.360;7.582;2022-09-27T10:19:22;13.80;99.90
21678;DHT22;11000;50.360;7.582;2022-09-27T10:21:48;13.90;99.90
21678;DHT22;11000;50.360;7.582;2022-09-27T10:24:15;14.10;99.90
21678;DHT22;11000;50.360;7.582;2022-09-27T10:26:37;14.10;99.90
21678;DHT22;11000;50.360;7.582;2022-09-27T10:31:35;14.30;99.90
21678;DHT22;11000;50.360;7.582;2022-09-27T10:34:04;14.40;99.90
21678;DHT22;11000;50.360;7.582;2022-09-27T10:36:33;14.40;99.90
21678;DHT22;11000;50.360;7.582;2022-09-27T10:38:59;14.30;99.90
21678;DHT22;11000;50.360;7.582;2022-09-27T10:43:45;14.20;99.90
21678;DHT22;11000;50.360;7.582;2022-09-27T10:46:12;14.20;99.90
21678;DHT22;11000;50.360;7.582;2022-09-27T10:48:35;14.20;99.90
21678;DHT22;11000;50.360;7.582;2022-09-27T10:51:01;14.30;99.90
21678;DHT22;11000;50.360;7.582;2022-09-27T10:53:23;14.40;99.90
21678;DHT22;11000;50.360;7.582;2022-09-27T10:55:47;14.40;99.90
21678;DHT22;11000;50.360;7.582;2022-09-27T10:58:31;14.40;99.90
21678;DHT22;11000;50.360;7.582;2022-09-27T11:01:04;14.40;99.90
21678;DHT22;11000;50.360;7.582;2022-09-27T11:03:26;14.40;99.90
21678;DHT22;11000;50.360;7.582;2022-09-27T11:05:48;14.60;99.90
21678;DHT22;11000;50.360;7.582;2022-09-27T11:10:38;14.60;99.90
21678;DHT22;11000;50.360;7.582;2022-09-27T11:18:42;14.10;99.90
21678;DHT22;11000;50.360;7.582;2022-09-27T11:26:45;13.50;99.90
21678;DHT22;11000;50.360;7.582;2022-09-27T11:29:19;13.40;99.90
21678;DHT22;11000;50.360;7.582;2022-09-27T11:37:32;13.10;99.90
21678;DHT22;11000;50.360;7.582;2022-09-27T11:40:16;13.00;99.90
21678;DHT22;11000;50.360;7.582;2022-09-27T11:45:22;13.20;99.90
21678;DHT22;11000;50.360;7.582;2022-09-27T11:48:01;13.30;99.90
21678;DHT22;11000;50.360;7.582;2022-09-27T11:56:05;13.50;99.90
21678;DHT22;11000;50.360;7.582;2022-09-27T11:58:38;13.50;99.90
21678;DHT22;11000;50.360;7.582;2022-09-27T12:09:19;13.90;99.90
21678;DHT22;11000;50.360;7.582;2022-09-27T12:11:58;14.00;99.90
21678;DHT22;11000;50.360;7.582;2022-09-27T12:14:44;14.10;99.90
21678;DHT22;11000;50.360;7.582;2022-09-27T12:17:15;14.20;99.90
21678;DHT22;11000;50.360;7.582;2022-09-27T12:19:40;14.20;99.90
21678;DHT22;11000;50.360;7.582;2022-09-27T12:22:05;14.20;99.90
21678;DHT22;11000;50.360;7.582;2022-09-27T12:24:27;14.40;99.90
21678;DHT22;11000;50.360;7.582;2022-09-27T12:26:54;14.40;99.90
21678;DHT22;11000;50.360;7.582;2022-09-27T12:29:34;14.40;99.90
21678;DHT22;11000;50.360;7.582;2022-09-27T12:34:54;14.30;99.90
21678;DHT22;11000;50.360;7.582;2022-09-27T12:37:29;14.40;99.90
21678;DHT22;11000;50.360;7.582;2022-09-27T12:42:46;14.50;99.90
21678;DHT22;11000;50.360;7.582;2022-09-27T12:45:12;14.50;99.90
21678;DHT22;11000;50.360;7.582;2022-09-27T12:50:33;14.60;99.90
21678;DHT22;11000;50.360;7.582;2022-09-27T12:53:12;14.60;99.90
21678;DHT22;11000;50.360;7.582;2022-09-27T13:01:23;14.80;99.90
21678;DHT22;11000;50.360;7.582;2022-09-27T13:14:24;15.00;99.90
21678;DHT22;11000;50.360;7.582;2022-09-27T13:16:46;15.00;99.90
21678;DHT22;11000;50.360;7.582;2022-09-27T13:21:55;14.80;99.90
21678;DHT22;11000;50.360;7.582;2022-09-27T13:26:59;14.70;99.90
21678;DHT22;11000;50.360;7.582;2022-09-27T13:29:26;14.70;99.90
21678;DHT22;11000;50.360;7.582;2022-09-27T13:37:36;14.50;99.90
21678;DHT22;11000;50.360;7.582;2022-09-27T13:42:39;14.70;99.90
21678;DHT22;11000;50.360;7.582;2022-09-27T13:45:26;14.70;99.90
21678;DHT22;11000;50.360;7.582;2022-09-27T13:47:51;14.70;99.90
21678;DHT22;11000;50.360;7.582;2022-09-27T13:50:49;14.80;99.90
21678;DHT22;11000;50.360;7.582;2022-09-27T13:53:34;15.00;99.90
21678;DHT22;11000;50.360;7.582;2022-09-27T13:55:56;15.20;99.90
21678;DHT22;11000;50.360;7.582;2022-09-27T13:58:33;15.20;99.90
21678;DHT22;11000;50.360;7.582;2022-09-27T14:00:59;15.20;99.90
21678;DHT22;11000;50.360;7.582;2022-09-27T14:03:28;15.10;99.90
21678;DHT22;11000;50.360;7.582;2022-09-27T14:05:58;14.90;99.90
21678;DHT22;11000;50.360;7.582;2022-09-27T14:08:37;14.70;99.90
21678;DHT22;11000;50.360;7.582;2022-09-27T14:11:08;14.70;99.90
21678;DHT22;11000;50.360;7.582;2022-09-27T14:13:30;14.80;99.90
21678;DHT22;11000;50.360;7.582;2022-09-27T14:15:53;14.90;99.90
21678;DHT22;11000;50.360;7.582;2022-09-27T14:18:15;14.90;99.90
21678;DHT22;11000;50.360;7.582;2022-09-27T14:20:41;14.70;99.90
21678;DHT22;11000;50.360;7.582;2022-09-27T14:23:03;14.60;99.90
21678;DHT22;11000;50.360;7.582;2022-09-27T14:25:24;14.70;99.90
21678;DHT22;11000;50.360;7.582;2022-09-27T14:27:44;14.90;99.90
21678;DHT22;11000;50.360;7.582;2022-09-27T14:30:13;15.00;99.90
21678;DHT22;11000;50.360;7.582;2022-09-27T14:32:51;14.90;99.90
21678;DHT22;11000;50.360;7.582;2022-09-27T14:35:19;14.80;99.90
21678;DHT22;11000;50.360;7.582;2022-09-27T14:38:01;14.60;99.90
21678;DHT22;11000;50.360;7.582;2022-09-27T14:40:22;14.50;99.90
21678;DHT22;11000;50.360;7.582;2022-09-27T14:42:42;14.40;99.90
21678;DHT22;11000;50.360;7.582;2022-09-27T14:45:19;14.30;99.90
21678;DHT22;11000;50.360;7.582;2022-09-27T14:47:47;14.30;99.90
21678;DHT22;11000;50.360;7.582;2022-09-27T14:50:25;14.30;99.90
21678;DHT22;11000;50.360;7.582;2022-09-27T14:52:48;14.20;99.90
21678;DHT22;11000;50.360;7.582;2022-09-27T14:55:19;14.20;99.90
21678;DHT22;11000;50.360;7.582;2022-09-27T14:57:49;14.10;99.90
21678;DHT22;11000;50.360;7.582;2022-09-27T15:00:22;14.10;99.90
21678;DHT22;11000;50.360;7.582;2022-09-27T15:02:44;14.10;99.90
21678;DHT22;11000;50.360;7.582;2022-09-27T15:05:15;14.10;99.90
21678;DHT22;11000;50.360;7.582;2022-09-27T15:07:37;14.00;99.90
21678;DHT22;11000;50.360;7.582;2022-09-27T15:09:57;14.00;99.90
21678;DHT22;11000;50.360;7.582;2022-09-27T15:12:25;13.90;99.90
21678;DHT22;11000;50.360;7.582;2022-09-27T15:14:46;13.80;99.90
21678;DHT22;11000;50.360;7.582;2022-09-27T15:17:18;13.70;99.90
21678;DHT22;11000;50.360;7.582;2022-09-27T15:19:58;13.60;99.90
21678;DHT22;11000;50.360;7.582;2022-09-27T15:22:33;13.40;99.90
21678;DHT22;11000;50.360;7.582;2022-09-27T15:25:03;13.30;99.90
21678;DHT22;11000;50.360;7.582;2022-09-27T15:27:25;13.10;99.90
21678;DHT22;11000;50.360;7.582;2022-09-27T15:29:55;13.10;99.90
21678;DHT22;11000;50.360;7.582;2022-09-27T15:32:20;13.10;99.90
21678;DHT22;11000;50.360;7.582;2022-09-27T15:34:41;13.00;99.90
21678;DHT22;11000;50.360;7.582;2022-09-27T15:37:02;13.00;99.90
21678;DHT22;11000;50.360;7.582;2022-09-27T15:39:36;13.10;99.90
21678;DHT22;11000;50.360;7.582;2022-09-27T15:42:11;12.90;99.90
21678;DHT22;11000;50.360;7.582;2022-09-27T15:44:36;13.00;99.90
21678;DHT22;11000;50.360;7.582;2022-09-27T15:46:57;13.00;99.90
21678;DHT22;11000;50.360;7.582;2022-09-27T15:49:31;12.70;99.90
21678;DHT22;11000;50.360;7.582;2022-09-27T15:51:56;12.60;99.90
21678;DHT22;11000;50.360;7.582;2022-09-27T15:54:21;12.60;99.90
21678;DHT22;11000;50.360;7.582;2022-09-27T15:56:42;12.60;99.90
21678;DHT22;11000;50.360;7.582;2022-09-27T15:59:03;12.60;99.90
21678;DHT22;11000;50.360;7.582;2022-09-27T16:01:24;12.40;99.90
21678;DHT22;11000;50.360;7.582;2022-09-27T16:03:45;12.50;99.90
21678;DHT22;11000;50.360;7.582;2022-09-27T16:06:05;12.40;99.90
21678;DHT22;11000;50.360;7.582;2022-09-27T16:08:26;12.30;99.90
21678;DHT22;11000;50.360;7.582;2022-09-27T16:10:50;12.30;99.90
21678;DHT22;11000;50.360;7.582;2022-09-27T16:13:11;12.40;99.90
21678;DHT22;11000;50.360;7.582;2022-09-27T16:15:32;12.50;99.90
21678;DHT22;11000;50.360;7.582;2022-09-27T16:17:52;12.50;99.90
21678;DHT22;11000;50.360;7.582;2022-09-27T16:20:18;12.60;99.90
21678;DHT22;11000;50.360;7.582;2022-09-27T16:22:38;12.60;99.90
21678;DHT22;11000;50.360;7.582;2022-09-27T16:24:59;12.50;99.90
21678;DHT22;11000;50.360;7.582;2022-09-27T16:27:24;12.50;99.90
21678;DHT22;11000;50.360;7.582;2022-09-27T16:29:46;12.40;99.90
21678;DHT22;11000;50.360;7.582;2022-09-27T16:32:07;12.40;99.90
21678;DHT22;11000;50.360;7.582;2022-09-27T16:34:27;12.40;99.90
21678;DHT22;11000;50.360;7.582;2022-09-27T16:36:49;12.40;99.90
21678;DHT22;11000;50.360;7.582;2022-09-27T16:39:11;12.40;99.90
21678;DHT22;11000;50.360;7.582;2022-09-27T16:41:33;12.40;99.90
21678;DHT22;11000;50.360;7.582;2022-09-27T16:43:54;12.40;99.90
21678;DHT22;11000;50.360;7.582;2022-09-27T16:46:15;12.40;99.90
21678;DHT22;11000;50.360;7.582;2022-09-27T16:48:38;12.30;99.90
21678;DHT22;11000;50.360;7.582;2022-09-27T16:51:08;12.30;99.90
21678;DHT22;11000;50.360;7.582;2022-09-27T16:53:48;12.20;99.90
21678;DHT22;11000;50.360;7.582;2022-09-27T16:56:08;12.20;99.90
21678;DHT22;11000;50.360;7.582;2022-09-27T16:58:29;12.00;99.90
21678;DHT22;11000;50.360;7.582;2022-09-27T17:00:50;11.90;99.90
21678;DHT22;11000;50.360;7.582;2022-09-27T17:03:10;11.80;99.90
21678;DHT22;11000;50.360;7.582;2022-09-27T17:05:31;11.80;99.90
21678;DHT22;11000;50.360;7.582;2022-09-27T17:07:52;11.70;99.90
21678;DHT22;11000;50.360;7.582;2022-09-27T17:10:12;11.70;99.90
21678;DHT22;11000;50.360;7.582;2022-09-27T17:12:34;11.60;99.90